Retalhuleu, Guatemala
Current Conditions -  °F | °C
As of 7:41 AM on Saturday 25 Oct 2014 (Local Time) from MMTP Reporting Station
Scattered Clouds Scattered Clouds  
Wind Chill: 77°   Ceiling: Unl
Heat Index: 78°   Visibility: 10mi
Dew Point: 75°   Wind: 0mph
Humidity: 94%   Direction: NA
Pressure: 29.91"   Gusts: NA
Location:  14.54°N, 91.69°W
Report Text: MMTP 251341Z 00000KT 10SM FEW040 SCT100 25/24 A2991 8/140
Loading
Personal Weather Stations






























Interactive Weather Map
Tropical Storm Tracking
New forecast layout! Learn more

10-Day Weather Forecast

Advertisements
Track Severe Weather on mobile